sensor_id;sensor_type;location;lat;lon;timestamp;pressure;altitude;pressure_sealevel;temperature;humidity
55187;BME280;55457;52.002;5.464;2022-07-19T00:02:16;101673.41;;;25.25;48.67
55187;BME280;55457;52.002;5.464;2022-07-19T00:04:41;101673.41;;;25.25;48.64
55187;BME280;55457;52.002;5.464;2022-07-19T00:07:06;101675.31;;;25.25;48.41
55187;BME280;55457;52.002;5.464;2022-07-19T00:09:32;101664.66;;;25.23;48.32
55187;BME280;55457;52.002;5.464;2022-07-19T00:11:57;101665.50;;;25.24;48.30
55187;BME280;55457;52.002;5.464;2022-07-19T00:14:23;101670.13;;;25.23;48.59
55187;BME280;55457;52.002;5.464;2022-07-19T00:16:48;101670.13;;;25.23;48.49
55187;BME280;55457;52.002;5.464;2022-07-19T00:19:14;101666.59;;;25.23;48.42
55187;BME280;55457;52.002;5.464;2022-07-19T00:21:39;101667.41;;;25.23;48.59
55187;BME280;55457;52.002;5.464;2022-07-19T00:24:05;101668.22;;;25.24;48.12
55187;BME280;55457;52.002;5.464;2022-07-19T00:26:30;101667.41;;;25.23;48.58
55187;BME280;55457;52.002;5.464;2022-07-19T00:28:56;101666.59;;;25.23;48.70
55187;BME280;55457;52.002;5.464;2022-07-19T00:31:22;101663.84;;;25.23;48.35
55187;BME280;55457;52.002;5.464;2022-07-19T00:33:48;101671.22;;;25.22;48.53
55187;BME280;55457;52.002;5.464;2022-07-19T00:36:14;101660.31;;;25.22;48.42
55187;BME280;55457;52.002;5.464;2022-07-19T00:38:39;101659.22;;;25.23;48.45
55187;BME280;55457;52.002;5.464;2022-07-19T00:41:04;101657.56;;;25.22;48.29
55187;BME280;55457;52.002;5.464;2022-07-19T00:43:30;101663.03;;;25.22;48.27
55187;BME280;55457;52.002;5.464;2022-07-19T00:45:55;101665.75;;;25.22;48.33
55187;BME280;55457;52.002;5.464;2022-07-19T00:48:21;101668.50;;;25.22;48.32
55187;BME280;55457;52.002;5.464;2022-07-19T00:50:47;101668.50;;;25.22;48.21
55187;BME280;55457;52.002;5.464;2022-07-19T00:53:14;101669.31;;;25.23;48.32
55187;BME280;55457;52.002;5.464;2022-07-19T00:55:41;101659.22;;;25.23;48.13
55187;BME280;55457;52.002;5.464;2022-07-19T00:58:08;101663.03;;;25.22;48.34
55187;BME280;55457;52.002;5.464;2022-07-19T01:00:35;101661.38;;;25.21;48.33
55187;BME280;55457;52.002;5.464;2022-07-19T01:03:01;101664.13;;;25.21;48.49
55187;BME280;55457;52.002;5.464;2022-07-19T01:05:27;101663.03;;;25.22;48.38
55187;BME280;55457;52.002;5.464;2022-07-19T01:07:52;101659.47;;;25.22;48.44
55187;BME280;55457;52.002;5.464;2022-07-19T01:10:17;101665.16;;;25.20;48.08
55187;BME280;55457;52.002;5.464;2022-07-19T01:12:43;101666.00;;;25.21;48.33
55187;BME280;55457;52.002;5.464;2022-07-19T01:15:19;101667.66;;;25.22;48.30
55187;BME280;55457;52.002;5.464;2022-07-19T01:17:45;101661.38;;;25.21;48.39
55187;BME280;55457;52.002;5.464;2022-07-19T01:20:10;101666.84;;;25.21;48.29
55187;BME280;55457;52.002;5.464;2022-07-19T01:22:36;101657.00;;;25.20;48.30
55187;BME280;55457;52.002;5.464;2022-07-19T01:25:01;101666.84;;;25.21;48.30
55187;BME280;55457;52.002;5.464;2022-07-19T01:27:26;101666.00;;;25.21;48.31
55187;BME280;55457;52.002;5.464;2022-07-19T01:29:52;101661.63;;;25.20;48.19
55187;BME280;55457;52.002;5.464;2022-07-19T01:32:17;101655.34;;;25.19;48.27
55187;BME280;55457;52.002;5.464;2022-07-19T01:34:42;101652.63;;;25.19;48.19
55187;BME280;55457;52.002;5.464;2022-07-19T01:37:08;101658.06;;;25.19;48.06
55187;BME280;55457;52.002;5.464;2022-07-19T01:39:33;101657.25;;;25.19;48.09
55187;BME280;55457;52.002;5.464;2022-07-19T01:41:58;101658.91;;;25.20;47.98
55187;BME280;55457;52.002;5.464;2022-07-19T01:44:23;101657.25;;;25.19;48.28
55187;BME280;55457;52.002;5.464;2022-07-19T01:46:49;101657.25;;;25.19;48.25
55187;BME280;55457;52.002;5.464;2022-07-19T01:49:14;101658.91;;;25.20;48.28
55187;BME280;55457;52.002;5.464;2022-07-19T01:51:39;101653.72;;;25.18;48.21
55187;BME280;55457;52.002;5.464;2022-07-19T01:54:05;101656.44;;;25.18;48.21
55187;BME280;55457;52.002;5.464;2022-07-19T01:56:30;101650.97;;;25.18;48.19
55187;BME280;55457;52.002;5.464;2022-07-19T01:58:55;101644.72;;;25.18;48.07
55187;BME280;55457;52.002;5.464;2022-07-19T02:01:21;101651.81;;;25.19;48.23
55187;BME280;55457;52.002;5.464;2022-07-19T02:03:46;101653.72;;;25.18;48.09
55187;BME280;55457;52.002;5.464;2022-07-19T02:06:11;101641.16;;;25.17;48.17
55187;BME280;55457;52.002;5.464;2022-07-19T02:08:37;101645.53;;;25.18;48.33
55187;BME280;55457;52.002;5.464;2022-07-19T02:11:03;101641.16;;;25.17;48.27
55187;BME280;55457;52.002;5.464;2022-07-19T02:13:48;101638.44;;;25.17;48.09
55187;BME280;55457;52.002;5.464;2022-07-19T02:16:13;101640.06;;;25.18;48.10
55187;BME280;55457;52.002;5.464;2022-07-19T02:18:38;101631.34;;;25.16;48.14
55187;BME280;55457;52.002;5.464;2022-07-19T02:21:04;101638.44;;;25.17;47.92
55187;BME280;55457;52.002;5.464;2022-07-19T02:23:29;101623.16;;;25.16;48.17
55187;BME280;55457;52.002;5.464;2022-07-19T02:25:54;101621.47;;;25.15;48.20
55187;BME280;55457;52.002;5.464;2022-07-19T02:28:20;101627.53;;;25.17;48.19
55187;BME280;55457;52.002;5.464;2022-07-19T02:30:45;101624.19;;;25.15;47.97
55187;BME280;55457;52.002;5.464;2022-07-19T02:33:10;101618.75;;;25.15;48.03
55187;BME280;55457;52.002;5.464;2022-07-19T02:35:36;101614.13;;;25.16;47.88
55187;BME280;55457;52.002;5.464;2022-07-19T02:38:01;101622.06;;;25.17;48.15
55187;BME280;55457;52.002;5.464;2022-07-19T02:40:26;101616.03;;;25.15;47.92
55187;BME280;55457;52.002;5.464;2022-07-19T02:42:52;101617.94;;;25.15;48.07
55187;BME280;55457;52.002;5.464;2022-07-19T02:45:17;101608.94;;;25.14;47.97
55187;BME280;55457;52.002;5.464;2022-07-19T02:47:42;101607.84;;;25.15;47.97
55187;BME280;55457;52.002;5.464;2022-07-19T02:50:08;101608.94;;;25.14;48.01
55187;BME280;55457;52.002;5.464;2022-07-19T02:52:33;101611.66;;;25.14;48.04
55187;BME280;55457;52.002;5.464;2022-07-19T02:54:59;101612.47;;;25.15;48.09
55187;BME280;55457;52.002;5.464;2022-07-19T02:57:24;101616.84;;;25.16;47.90
55187;BME280;55457;52.002;5.464;2022-07-19T02:59:49;101616.28;;;25.14;47.99
55187;BME280;55457;52.002;5.464;2022-07-19T03:02:14;101617.09;;;25.14;47.91
55187;BME280;55457;52.002;5.464;2022-07-19T03:04:40;101611.91;;;25.13;47.92
55187;BME280;55457;52.002;5.464;2022-07-19T03:07:05;101611.66;;;25.14;47.88
55187;BME280;55457;52.002;5.464;2022-07-19T03:09:30;101611.66;;;25.14;47.97
55187;BME280;55457;52.002;5.464;2022-07-19T03:11:56;101610.00;;;25.13;48.00
55187;BME280;55457;52.002;5.464;2022-07-19T03:14:21;101610.00;;;25.13;47.82
55187;BME280;55457;52.002;5.464;2022-07-19T03:16:46;101618.19;;;25.13;47.99
55187;BME280;55457;52.002;5.464;2022-07-19T03:19:11;101611.66;;;25.14;47.92
55187;BME280;55457;52.002;5.464;2022-07-19T03:21:37;101611.66;;;25.14;47.81
55187;BME280;55457;52.002;5.464;2022-07-19T03:24:02;101602.09;;;25.12;48.00
55187;BME280;55457;52.002;5.464;2022-07-19T03:26:27;101612.75;;;25.13;48.10
55187;BME280;55457;52.002;5.464;2022-07-19T03:28:53;101605.38;;;25.14;47.92
55187;BME280;55457;52.002;5.464;2022-07-19T03:31:18;101608.38;;;25.12;47.85
55187;BME280;55457;52.002;5.464;2022-07-19T03:33:43;101609.19;;;25.13;47.86
55187;BME280;55457;52.002;5.464;2022-07-19T03:36:09;101605.66;;;25.12;47.93
55187;BME280;55457;52.002;5.464;2022-07-19T03:38:34;101609.19;;;25.13;47.96
55187;BME280;55457;52.002;5.464;2022-07-19T03:40:59;101607.56;;;25.12;47.87
55187;BME280;55457;52.002;5.464;2022-07-19T03:43:25;101612.19;;;25.11;47.88
55187;BME280;55457;52.002;5.464;2022-07-19T03:45:50;101614.91;;;25.11;47.86
55187;BME280;55457;52.002;5.464;2022-07-19T03:48:15;101608.38;;;25.12;48.02
55187;BME280;55457;52.002;5.464;2022-07-19T03:50:42;101606.72;;;25.11;47.93
55187;BME280;55457;52.002;5.464;2022-07-19T03:53:08;101607.56;;;25.12;47.99
55187;BME280;55457;52.002;5.464;2022-07-19T03:55:33;101604.00;;;25.11;47.81
55187;BME280;55457;52.002;5.464;2022-07-19T03:57:59;101606.72;;;25.11;47.87
55187;BME280;55457;52.002;5.464;2022-07-19T04:00:24;101612.19;;;25.11;48.05
55187;BME280;55457;52.002;5.464;2022-07-19T04:02:49;101610.28;;;25.12;47.92
55187;BME280;55457;52.002;5.464;2022-07-19T04:05:15;101607.56;;;25.12;47.92
55187;BME280;55457;52.002;5.464;2022-07-19T04:07:40;101610.28;;;25.12;47.91
55187;BME280;55457;52.002;5.464;2022-07-19T04:10:06;101603.16;;;25.11;47.78
55187;BME280;55457;52.002;5.464;2022-07-19T04:12:32;101600.19;;;25.12;47.89
55187;BME280;55457;52.002;5.464;2022-07-19T04:14:57;101601.28;;;25.11;47.73
55187;BME280;55457;52.002;5.464;2022-07-19T04:17:22;101604.81;;;25.12;47.72
55187;BME280;55457;52.002;5.464;2022-07-19T04:19:49;101606.72;;;25.11;47.96
55187;BME280;55457;52.002;5.464;2022-07-19T04:22:14;101601.28;;;25.11;47.86
55187;BME280;55457;52.002;5.464;2022-07-19T04:24:40;101607.56;;;25.12;47.83
55187;BME280;55457;52.002;5.464;2022-07-19T04:27:05;101604.00;;;25.11;47.91
55187;BME280;55457;52.002;5.464;2022-07-19T04:29:31;101600.41;;;25.11;47.97
55187;BME280;55457;52.002;5.464;2022-07-19T04:31:56;101604.00;;;25.11;47.94
55187;BME280;55457;52.002;5.464;2022-07-19T04:34:21;101605.88;;;25.11;47.97
55187;BME280;55457;52.002;5.464;2022-07-19T04:36:48;101604.00;;;25.11;47.86
55187;BME280;55457;52.002;5.464;2022-07-19T04:39:13;101605.88;;;25.11;48.00
55187;BME280;55457;52.002;5.464;2022-07-19T04:41:38;101604.00;;;25.11;47.97
55187;BME280;55457;52.002;5.464;2022-07-19T04:44:04;101600.41;;;25.11;47.93
55187;BME280;55457;52.002;5.464;2022-07-19T04:46:29;101601.28;;;25.11;47.87
55187;BME280;55457;52.002;5.464;2022-07-19T04:48:54;101601.84;;;25.13;48.04
55187;BME280;55457;52.002;5.464;2022-07-19T04:51:20;101601.28;;;25.11;47.94
55187;BME280;55457;52.002;5.464;2022-07-19T04:53:45;101601.28;;;25.11;47.97
55187;BME280;55457;52.002;5.464;2022-07-19T04:56:10;101597.69;;;25.11;48.07
55187;BME280;55457;52.002;5.464;2022-07-19T04:58:36;101594.97;;;25.11;47.93
55187;BME280;55457;52.002;5.464;2022-07-19T05:01:01;101595.81;;;25.11;47.90
55187;BME280;55457;52.002;5.464;2022-07-19T05:03:26;101592.00;;;25.12;48.04
55187;BME280;55457;52.002;5.464;2022-07-19T05:05:54;101601.28;;;25.11;48.07
55187;BME280;55457;52.002;5.464;2022-07-19T05:08:19;101590.38;;;25.11;47.97
55187;BME280;55457;52.002;5.464;2022-07-19T05:10:45;101592.00;;;25.12;48.10
55187;BME280;55457;52.002;5.464;2022-07-19T05:13:11;101594.16;;;25.10;48.02
55187;BME280;55457;52.002;5.464;2022-07-19T05:15:37;101591.19;;;25.12;47.90
55187;BME280;55457;52.002;5.464;2022-07-19T05:18:02;101585.72;;;25.12;48.01
55187;BME280;55457;52.002;5.464;2022-07-19T05:20:27;101590.38;;;25.11;47.90
55187;BME280;55457;52.002;5.464;2022-07-19T05:22:53;101590.38;;;25.11;47.99
55187;BME280;55457;52.002;5.464;2022-07-19T05:25:18;101593.66;;;25.13;48.28
55187;BME280;55457;52.002;5.464;2022-07-19T05:27:44;101596.63;;;25.12;48.36
55187;BME280;55457;52.002;5.464;2022-07-19T05:30:10;101590.38;;;25.11;48.34
55187;BME280;55457;52.002;5.464;2022-07-19T05:32:36;101591.41;;;25.10;48.30
55187;BME280;55457;52.002;5.464;2022-07-19T05:35:01;101594.97;;;25.11;48.19
55187;BME280;55457;52.002;5.464;2022-07-19T05:37:26;101589.78;;;25.09;48.32
55187;BME280;55457;52.002;5.464;2022-07-19T05:39:52;101595.81;;;25.11;48.23
55187;BME280;55457;52.002;5.464;2022-07-19T05:42:17;101588.69;;;25.10;48.28
55187;BME280;55457;52.002;5.464;2022-07-19T05:44:42;101588.69;;;25.10;48.43
55187;BME280;55457;52.002;5.464;2022-07-19T05:47:08;101589.78;;;25.09;48.28
55187;BME280;55457;52.002;5.464;2022-07-19T05:49:33;101594.16;;;25.10;48.33
55187;BME280;55457;52.002;5.464;2022-07-19T05:51:58;101594.97;;;25.11;48.31
55187;BME280;55457;52.002;5.464;2022-07-19T05:54:23;101593.31;;;25.10;48.51
55187;BME280;55457;52.002;5.464;2022-07-19T05:56:49;101598.78;;;25.10;48.21
55187;BME280;55457;52.002;5.464;2022-07-19T05:59:14;101605.06;;;25.10;48.38
55187;BME280;55457;52.002;5.464;2022-07-19T06:01:40;101603.16;;;25.11;48.42
55187;BME280;55457;52.002;5.464;2022-07-19T06:04:05;101597.69;;;25.11;48.30
55187;BME280;55457;52.002;5.464;2022-07-19T06:06:32;101601.28;;;25.11;48.25
55187;BME280;55457;52.002;5.464;2022-07-19T06:08:58;101605.66;;;25.12;48.35
55187;BME280;55457;52.002;5.464;2022-07-19T06:11:24;101597.47;;;25.12;48.36
55187;BME280;55457;52.002;5.464;2022-07-19T06:13:50;101585.72;;;25.12;48.42
55187;BME280;55457;52.002;5.464;2022-07-19T06:16:16;101596.38;;;25.13;48.24
55187;BME280;55457;52.002;5.464;2022-07-19T06:18:42;101593.66;;;25.13;48.57
55187;BME280;55457;52.002;5.464;2022-07-19T06:21:10;101593.66;;;25.13;48.49
55187;BME280;55457;52.002;5.464;2022-07-19T06:23:36;101589.84;;;25.14;48.60
55187;BME280;55457;52.002;5.464;2022-07-19T06:26:02;101595.28;;;25.14;48.54
55187;BME280;55457;52.002;5.464;2022-07-19T06:28:28;101590.66;;;25.15;48.42
55187;BME280;55457;52.002;5.464;2022-07-19T06:30:53;101590.66;;;25.15;48.50
55187;BME280;55457;52.002;5.464;2022-07-19T06:33:19;101589.56;;;25.16;48.21
55187;BME280;55457;52.002;5.464;2022-07-19T06:35:45;101594.78;;;25.17;48.45
55187;BME280;55457;52.002;5.464;2022-07-19T06:38:10;101600.25;;;25.17;48.48
55187;BME280;55457;52.002;5.464;2022-07-19T06:40:36;101593.69;;;25.18;48.49
55187;BME280;55457;52.002;5.464;2022-07-19T06:43:01;101593.16;;;25.16;48.40
55187;BME280;55457;52.002;5.464;2022-07-19T06:45:27;101593.69;;;25.18;48.40
55187;BME280;55457;52.002;5.464;2022-07-19T06:47:52;101593.44;;;25.20;48.47
55187;BME280;55457;52.002;5.464;2022-07-19T06:50:19;101599.72;;;25.20;48.54
55187;BME280;55457;52.002;5.464;2022-07-19T06:52:44;101595.06;;;25.21;48.42
55187;BME280;55457;52.002;5.464;2022-07-19T06:55:10;101590.47;;;25.21;48.46
55187;BME280;55457;52.002;5.464;2022-07-19T06:57:35;101598.66;;;25.21;48.36
55187;BME280;55457;52.002;5.464;2022-07-19T07:00:01;101595.66;;;25.23;48.51
55187;BME280;55457;52.002;5.464;2022-07-19T07:02:26;101592.94;;;25.23;48.52
55187;BME280;55457;52.002;5.464;2022-07-19T07:04:52;101589.13;;;25.24;48.45
55187;BME280;55457;52.002;5.464;2022-07-19T07:07:17;101591.56;;;25.25;48.70
55187;BME280;55457;52.002;5.464;2022-07-19T07:09:42;101597.84;;;25.26;48.78
55187;BME280;55457;52.002;5.464;2022-07-19T07:12:08;101590.47;;;25.27;48.86
55187;BME280;55457;52.002;5.464;2022-07-19T07:14:34;101588.59;;;25.27;49.01
55187;BME280;55457;52.002;5.464;2022-07-19T07:16:59;101589.44;;;25.28;49.01
55187;BME280;55457;52.002;5.464;2022-07-19T07:19:24;101587.25;;;25.30;48.65
55187;BME280;55457;52.002;5.464;2022-07-19T07:21:50;101588.91;;;25.31;48.83
55187;BME280;55457;52.002;5.464;2022-07-19T07:24:15;101583.44;;;25.31;48.93
55187;BME280;55457;52.002;5.464;2022-07-19T07:26:41;101583.44;;;25.31;49.18
55187;BME280;55457;52.002;5.464;2022-07-19T07:29:06;101585.34;;;25.30;49.65
55187;BME280;55457;52.002;5.464;2022-07-19T07:31:31;101585.06;;;25.32;49.36
55187;BME280;55457;52.002;5.464;2022-07-19T07:33:57;101579.63;;;25.32;49.52
55187;BME280;55457;52.002;5.464;2022-07-19T07:36:22;101570.63;;;25.31;49.46
55187;BME280;55457;52.002;5.464;2022-07-19T07:38:47;101576.06;;;25.31;49.43
55187;BME280;55457;52.002;5.464;2022-07-19T07:41:13;101585.06;;;25.32;49.31
55187;BME280;55457;52.002;5.464;2022-07-19T07:43:38;101587.81;;;25.32;49.29
55187;BME280;55457;52.002;5.464;2022-07-19T07:46:03;101586.75;;;25.33;49.37
55187;BME280;55457;52.002;5.464;2022-07-19T07:48:29;101590.03;;;25.35;49.51
55187;BME280;55457;52.002;5.464;2022-07-19T07:50:55;101581.84;;;25.35;49.49
55187;BME280;55457;52.002;5.464;2022-07-19T07:53:21;101584.56;;;25.35;49.49
55187;BME280;55457;52.002;5.464;2022-07-19T07:55:46;101578.03;;;25.36;49.42
55187;BME280;55457;52.002;5.464;2022-07-19T07:58:12;101569.84;;;25.36;49.68
55187;BME280;55457;52.002;5.464;2022-07-19T08:00:39;101577.78;;;25.37;49.85
55187;BME280;55457;52.002;5.464;2022-07-19T08:03:05;101581.34;;;25.38;49.76
55187;BME280;55457;52.002;5.464;2022-07-19T08:05:31;101581.06;;;25.39;49.64
55187;BME280;55457;52.002;5.464;2022-07-19T08:07:57;101581.88;;;25.40;49.51
55187;BME280;55457;52.002;5.464;2022-07-19T08:10:24;101583.53;;;25.41;49.85
55187;BME280;55457;52.002;5.464;2022-07-19T08:12:50;101578.06;;;25.41;49.70
55187;BME280;55457;52.002;5.464;2022-07-19T08:15:16;101574.25;;;25.42;49.79
55187;BME280;55457;52.002;5.464;2022-07-19T08:17:41;101565.00;;;25.43;49.84
55187;BME280;55457;52.002;5.464;2022-07-19T08:20:07;101569.38;;;25.44;49.88
55187;BME280;55457;52.002;5.464;2022-07-19T08:22:33;101564.47;;;25.46;49.75
55187;BME280;55457;52.002;5.464;2022-07-19T08:24:58;101569.94;;;25.46;49.74
55187;BME280;55457;52.002;5.464;2022-07-19T08:27:23;101566.09;;;25.47;49.87
55187;BME280;55457;52.002;5.464;2022-07-19T08:29:49;101567.78;;;25.48;49.72
55187;BME280;55457;52.002;5.464;2022-07-19T08:32:14;101574.06;;;25.48;49.85
55187;BME280;55457;52.002;5.464;2022-07-19T08:34:39;101572.69;;;25.51;49.85
55187;BME280;55457;52.002;5.464;2022-07-19T08:37:04;101565.59;;;25.50;49.90
55187;BME280;55457;52.002;5.464;2022-07-19T08:39:30;101568.88;;;25.52;49.85
55187;BME280;55457;52.002;5.464;2022-07-19T08:41:55;101567.81;;;25.53;50.10
55187;BME280;55457;52.002;5.464;2022-07-19T08:44:22;101562.38;;;25.53;50.05
55187;BME280;55457;52.002;5.464;2022-07-19T08:46:48;101563.41;;;25.52;49.96
55187;BME280;55457;52.002;5.464;2022-07-19T08:49:14;101563.19;;;25.54;50.37
55187;BME280;55457;52.002;5.464;2022-07-19T08:51:41;101562.38;;;25.53;50.24
55187;BME280;55457;52.002;5.464;2022-07-19T08:54:07;101557.72;;;25.54;49.95
55187;BME280;55457;52.002;5.464;2022-07-19T08:56:32;101565.91;;;25.54;49.94
55187;BME280;55457;52.002;5.464;2022-07-19T08:59:16;101550.34;;;25.54;49.96
55187;BME280;55457;52.002;5.464;2022-07-19T09:01:41;101550.34;;;25.54;50.01
55187;BME280;55457;52.002;5.464;2022-07-19T09:04:14;101555.81;;;25.54;50.27
55187;BME280;55457;52.002;5.464;2022-07-19T09:06:51;101553.63;;;25.56;50.04
55187;BME280;55457;52.002;5.464;2022-07-19T09:11:49;101561.94;;;25.71;51.48
55187;BME280;55457;52.002;5.464;2022-07-19T09:14:27;101558.22;;;25.83;51.47
55187;BME280;55457;52.002;5.464;2022-07-19T09:19:30;101548.47;;;25.97;51.48
55187;BME280;55457;52.002;5.464;2022-07-19T09:22:09;101555.88;;;26.01;51.72
55187;BME280;55457;52.002;5.464;2022-07-19T09:24:37;101540.31;;;26.02;51.23
55187;BME280;55457;52.002;5.464;2022-07-19T09:27:10;101545.47;;;25.98;50.80
55187;BME280;55457;52.002;5.464;2022-07-19T09:29:40;101542.72;;;25.93;50.71
55187;BME280;55457;52.002;5.464;2022-07-19T09:37:18;101542.66;;;25.83;50.55
55187;BME280;55457;52.002;5.464;2022-07-19T09:39:45;101533.09;;;25.81;50.65
55187;BME280;55457;52.002;5.464;2022-07-19T09:42:15;101534.19;;;25.80;50.44
55187;BME280;55457;52.002;5.464;2022-07-19T09:44:42;101534.44;;;25.78;50.39
55187;BME280;55457;52.002;5.464;2022-07-19T09:47:08;101538.25;;;25.77;50.54
55187;BME280;55457;52.002;5.464;2022-07-19T09:49:33;101529.50;;;25.75;50.57
55187;BME280;55457;52.002;5.464;2022-07-19T09:51:58;101528.69;;;25.74;50.49
55187;BME280;55457;52.002;5.464;2022-07-19T09:54:27;101521.53;;;25.73;50.45
55187;BME280;55457;52.002;5.464;2022-07-19T09:56:54;101525.97;;;25.74;50.38
55187;BME280;55457;52.002;5.464;2022-07-19T09:59:22;101521.53;;;25.73;50.24
55187;BME280;55457;52.002;5.464;2022-07-19T10:01:48;101527.00;;;25.73;50.18
55187;BME280;55457;52.002;5.464;2022-07-19T10:04:19;101514.44;;;25.72;50.33
55187;BME280;55457;52.002;5.464;2022-07-19T10:06:47;101520.72;;;25.73;50.19
55187;BME280;55457;52.002;5.464;2022-07-19T10:09:14;101509.59;;;25.74;50.25
55187;BME280;55457;52.002;5.464;2022-07-19T10:11:40;101504.13;;;25.74;50.06
55187;BME280;55457;52.002;5.464;2022-07-19T10:14:07;101500.53;;;25.74;50.31
55187;BME280;55457;52.002;5.464;2022-07-19T10:19:19;101500.31;;;25.75;50.24
55187;BME280;55457;52.002;5.464;2022-07-19T10:21:48;101499.22;;;25.76;50.43
55187;BME280;55457;52.002;5.464;2022-07-19T10:24:13;101489.13;;;25.77;50.30
55187;BME280;55457;52.002;5.464;2022-07-19T10:26:41;101495.38;;;25.77;50.40
55187;BME280;55457;52.002;5.464;2022-07-19T10:29:11;101480.66;;;25.79;50.49
55187;BME280;55457;52.002;5.464;2022-07-19T10:31:37;101483.38;;;25.79;50.48
55187;BME280;55457;52.002;5.464;2022-07-19T10:34:05;101482.31;;;25.80;50.41
55187;BME280;55457;52.002;5.464;2022-07-19T10:36:33;101487.50;;;25.81;50.44
55187;BME280;55457;52.002;5.464;2022-07-19T10:39:35;101478.50;;;25.81;50.35
55187;BME280;55457;52.002;5.464;2022-07-19T10:42:07;101486.13;;;25.84;50.77
55187;BME280;55457;52.002;5.464;2022-07-19T10:44:32;101478.78;;;25.84;50.41
55187;BME280;55457;52.002;5.464;2022-07-19T10:46:58;101475.22;;;25.84;50.72
55187;BME280;55457;52.002;5.464;2022-07-19T10:49:44;101474.97;;;25.85;50.57
55187;BME280;55457;52.002;5.464;2022-07-19T10:55:25;101473.59;;;25.88;50.54
55187;BME280;55457;52.002;5.464;2022-07-19T11:00:40;101477.97;;;25.89;50.20
55187;BME280;55457;52.002;5.464;2022-07-19T11:05:52;101467.63;;;25.91;50.32
55187;BME280;55457;52.002;5.464;2022-07-19T11:08:30;101470.91;;;25.93;50.20
55187;BME280;55457;52.002;5.464;2022-07-19T11:11:10;101461.63;;;25.94;50.33
55187;BME280;55457;52.002;5.464;2022-07-19T11:13:38;101463.53;;;25.93;50.35
55187;BME280;55457;52.002;5.464;2022-07-19T11:16:04;101457.81;;;25.95;49.90
55187;BME280;55457;52.002;5.464;2022-07-19T11:18:31;101450.16;;;25.97;49.91
55187;BME280;55457;52.002;5.464;2022-07-19T11:20:58;101443.63;;;25.98;50.16
55187;BME280;55457;52.002;5.464;2022-07-19T11:23:25;101437.88;;;25.99;50.19
55187;BME280;55457;52.002;5.464;2022-07-19T11:26:08;101437.88;;;25.99;50.02
55187;BME280;55457;52.002;5.464;2022-07-19T11:28:34;101441.47;;;26.00;50.26
55187;BME280;55457;52.002;5.464;2022-07-19T11:30:59;101438.72;;;26.00;50.21
55187;BME280;55457;52.002;5.464;2022-07-19T11:33:25;101443.09;;;26.01;50.17
55187;BME280;55457;52.002;5.464;2022-07-19T11:35:58;101440.38;;;26.01;50.11
55187;BME280;55457;52.002;5.464;2022-07-19T11:38:37;101428.63;;;26.00;50.16
55187;BME280;55457;52.002;5.464;2022-07-19T11:41:02;101436.53;;;26.02;50.14
55187;BME280;55457;52.002;5.464;2022-07-19T11:43:28;101432.44;;;26.05;49.71
55187;BME280;55457;52.002;5.464;2022-07-19T11:45:54;101428.63;;;26.06;49.78
55187;BME280;55457;52.002;5.464;2022-07-19T11:48:25;101428.38;;;26.07;49.62
55187;BME280;55457;52.002;5.464;2022-07-19T11:51:10;101424.53;;;26.08;49.52
55187;BME280;55457;52.002;5.464;2022-07-19T11:53:39;101419.88;;;26.09;49.41
55187;BME280;55457;52.002;5.464;2022-07-19T11:56:16;101412.28;;;26.11;49.42
55187;BME280;55457;52.002;5.464;2022-07-19T11:58:42;101417.44;;;26.12;49.30
55187;BME280;55457;52.002;5.464;2022-07-19T12:01:08;101409.25;;;26.12;49.23
55187;BME280;55457;52.002;5.464;2022-07-19T12:03:34;101418.00;;;26.14;49.25
55187;BME280;55457;52.002;5.464;2022-07-19T12:06:02;101416.91;;;26.15;49.20
55187;BME280;55457;52.002;5.464;2022-07-19T12:08:43;101412.53;;;26.14;49.25
55187;BME280;55457;52.002;5.464;2022-07-19T12:11:24;101405.97;;;26.15;49.04
55187;BME280;55457;52.002;5.464;2022-07-19T12:13:52;101412.53;;;26.14;49.02
55187;BME280;55457;52.002;5.464;2022-07-19T12:16:19;101409.56;;;26.16;49.22
55187;BME280;55457;52.002;5.464;2022-07-19T12:18:55;101402.72;;;26.18;49.00
55187;BME280;55457;52.002;5.464;2022-07-19T12:21:24;101406.00;;;26.20;48.98
55187;BME280;55457;52.002;5.464;2022-07-19T12:27:02;101393.41;;;26.19;49.15
55187;BME280;55457;52.002;5.464;2022-07-19T12:32:08;101380.59;;;26.20;49.15
55187;BME280;55457;52.002;5.464;2022-07-19T12:34:46;101380.34;;;26.21;49.20
55187;BME280;55457;52.002;5.464;2022-07-19T12:37:39;101376.50;;;26.22;49.00
55187;BME280;55457;52.002;5.464;2022-07-19T12:42:42;101375.41;;;26.23;49.19
55187;BME280;55457;52.002;5.464;2022-07-19T12:45:08;101369.94;;;26.23;49.11
55187;BME280;55457;52.002;5.464;2022-07-19T12:47:34;101366.13;;;26.24;49.14
55187;BME280;55457;52.002;5.464;2022-07-19T12:50:00;101368.31;;;26.27;48.92
55187;BME280;55457;52.002;5.464;2022-07-19T12:52:25;101368.31;;;26.27;49.11
55187;BME280;55457;52.002;5.464;2022-07-19T12:54:50;101359.03;;;26.28;48.90
55187;BME280;55457;52.002;5.464;2022-07-19T12:57:16;101358.22;;;26.28;49.04
55187;BME280;55457;52.002;5.464;2022-07-19T12:59:41;101356.84;;;26.31;48.91
55187;BME280;55457;52.002;5.464;2022-07-19T13:02:12;101345.91;;;26.31;48.83
55187;BME280;55457;52.002;5.464;2022-07-19T13:04:39;101345.09;;;26.30;48.58
55187;BME280;55457;52.002;5.464;2022-07-19T13:07:06;101346.75;;;26.31;48.65
55187;BME280;55457;52.002;5.464;2022-07-19T13:09:33;101348.38;;;26.32;48.59
55187;BME280;55457;52.002;5.464;2022-07-19T13:12:00;101336.63;;;26.32;48.59
55187;BME280;55457;52.002;5.464;2022-07-19T13:14:25;101333.63;;;26.33;48.55
55187;BME280;55457;52.002;5.464;2022-07-19T13:16:50;101340.72;;;26.34;48.67
55187;BME280;55457;52.002;5.464;2022-07-19T13:19:16;101334.44;;;26.34;48.70